Terminal Aerodrome Forecast
Issued by NWS Cleveland, OH

Home | Current Version | Previous Version | Graphics & Text | Print | Product List | Glossary On
Versions: 1 2 3 4 5 6 7 8 9 10 11 12 13 14 15 16 17 18 19 20 21 22 23 24 25
247
FTUS41 KCLE 281726
TAFMFD
TAF
KMFD 281726Z 2818/2918 04008KT 5SM BR OVC004
     FM290200 03004KT 3SM BR VCSH OVC003
     FM291000 36003KT 1SM -DZ BR VV001
     FM291500 34005KT 5SM BR OVC003=

USA.gov is the U.S. government's official web portal to all federal, state and local government web resources and services.